sensor_id;sensor_type;location;lat;lon;timestamp;pressure;altitude;pressure_sealevel;temperature;humidity
13581;BME280;6861;46.170;7.222;2023-03-21T00:00:59;96307.16;;;10.81;51.42
13581;BME280;6861;46.170;7.222;2023-03-21T00:03:30;96314.47;;;10.79;51.06
13581;BME280;6861;46.170;7.222;2023-03-21T00:06:04;96299.81;;;10.78;51.41
13581;BME280;6861;46.170;7.222;2023-03-21T00:08:32;96300.34;;;10.75;51.44
13581;BME280;6861;46.170;7.222;2023-03-21T00:11:02;96295.63;;;10.72;51.40
13581;BME280;6861;46.170;7.222;2023-03-21T00:13:31;96297.16;;;10.68;51.56
13581;BME280;6861;46.170;7.222;2023-03-21T00:16:03;96292.44;;;10.65;51.70
13581;BME280;6861;46.170;7.222;2023-03-21T00:18:52;96293.50;;;10.64;51.40
13581;BME280;6861;46.170;7.222;2023-03-21T00:21:23;96298.19;;;10.62;51.64
13581;BME280;6861;46.170;7.222;2023-03-21T00:24:14;96288.78;;;10.61;51.75
13581;BME280;6861;46.170;7.222;2023-03-21T00:26:42;96292.44;;;10.60;51.71
13581;BME280;6861;46.170;7.222;2023-03-21T00:29:10;96300.53;;;10.58;51.51
13581;BME280;6861;46.170;7.222;2023-03-21T00:31:38;96293.44;;;10.54;51.94
13581;BME280;6861;46.170;7.222;2023-03-21T00:34:06;96291.59;;;10.49;51.89
13581;BME280;6861;46.170;7.222;2023-03-21T00:36:36;96297.59;;;10.44;52.01
13581;BME280;6861;46.170;7.222;2023-03-21T00:39:05;96288.97;;;10.39;52.24
13581;BME280;6861;46.170;7.222;2023-03-21T00:41:33;96278.75;;;10.37;52.21
13581;BME280;6861;46.170;7.222;2023-03-21T00:44:09;96270.66;;;10.39;52.47
13581;BME280;6861;46.170;7.222;2023-03-21T00:46:39;96272.22;;;10.40;52.34
13581;BME280;6861;46.170;7.222;2023-03-21T00:49:22;96274.81;;;10.35;52.27
13581;BME280;6861;46.170;7.222;2023-03-21T00:51:52;96268.28;;;10.37;52.21
13581;BME280;6861;46.170;7.222;2023-03-21T00:54:22;96263.06;;;10.37;52.14
13581;BME280;6861;46.170;7.222;2023-03-21T00:56:51;96269.88;;;10.38;52.08
13581;BME280;6861;46.170;7.222;2023-03-21T00:59:19;96272.47;;;10.33;52.42
13581;BME280;6861;46.170;7.222;2023-03-21T01:01:48;96263.53;;;10.24;52.40
13581;BME280;6861;46.170;7.222;2023-03-21T01:04:16;96264.50;;;10.18;52.54
13581;BME280;6861;46.170;7.222;2023-03-21T01:06:44;96261.34;;;10.11;52.55
13581;BME280;6861;46.170;7.222;2023-03-21T01:09:15;96257.66;;;10.07;52.41
13581;BME280;6861;46.170;7.222;2023-03-21T01:11:43;96259.19;;;10.03;52.77
13581;BME280;6861;46.170;7.222;2023-03-21T01:14:13;96252.66;;;10.00;52.81
13581;BME280;6861;46.170;7.222;2023-03-21T01:16:49;96251.88;;;10.00;52.72
13581;BME280;6861;46.170;7.222;2023-03-21T01:19:18;96244.03;;;10.00;52.68
13581;BME280;6861;46.170;7.222;2023-03-21T01:21:54;96243.50;;;10.03;52.43
13581;BME280;6861;46.170;7.222;2023-03-21T01:24:24;96239.31;;;10.02;52.50
13581;BME280;6861;46.170;7.222;2023-03-21T01:26:52;96244.56;;;10.02;52.67
13581;BME280;6861;46.170;7.222;2023-03-21T01:29:20;96242.97;;;10.01;52.56
13581;BME280;6861;46.170;7.222;2023-03-21T01:31:48;96244.03;;;10.00;52.83
13581;BME280;6861;46.170;7.222;2023-03-21T01:34:16;96238.47;;;9.91;52.86
13581;BME280;6861;46.170;7.222;2023-03-21T01:36:44;96238.69;;;9.84;53.25
13581;BME280;6861;46.170;7.222;2023-03-21T01:39:12;96243.91;;;9.79;52.83
13581;BME280;6861;46.170;7.222;2023-03-21T01:41:42;96245.44;;;9.75;52.99
13581;BME280;6861;46.170;7.222;2023-03-21T01:44:14;96239.16;;;9.71;53.21
13581;BME280;6861;46.170;7.222;2023-03-21T01:46:44;96236.50;;;9.66;53.12
13581;BME280;6861;46.170;7.222;2023-03-21T01:49:37;96227.59;;;9.62;53.30
13581;BME280;6861;46.170;7.222;2023-03-21T01:52:14;96220.53;;;9.63;53.69
13581;BME280;6861;46.170;7.222;2023-03-21T01:55:00;96227.06;;;9.60;53.76
13581;BME280;6861;46.170;7.222;2023-03-21T01:57:33;96228.63;;;9.61;53.84
13581;BME280;6861;46.170;7.222;2023-03-21T02:00:19;96219.75;;;9.62;53.44
13581;BME280;6861;46.170;7.222;2023-03-21T02:02:48;96221.81;;;9.60;53.64
13581;BME280;6861;46.170;7.222;2023-03-21T02:05:29;96216.84;;;9.59;54.09
13581;BME280;6861;46.170;7.222;2023-03-21T02:08:00;96211.88;;;9.57;53.87
13581;BME280;6861;46.170;7.222;2023-03-21T02:10:30;96217.34;;;9.56;53.94
13581;BME280;6861;46.170;7.222;2023-03-21T02:13:02;96213.41;;;9.48;54.12
13581;BME280;6861;46.170;7.222;2023-03-21T02:15:36;96211.81;;;9.42;53.68
13581;BME280;6861;46.170;7.222;2023-03-21T02:18:10;96216.19;;;9.36;54.26
13581;BME280;6861;46.170;7.222;2023-03-21T02:21:16;96216.94;;;9.32;54.37
13581;BME280;6861;46.170;7.222;2023-03-21T02:24:28;96224.00;;;9.31;54.61
13581;BME280;6861;46.170;7.222;2023-03-21T02:27:13;96210.69;;;9.33;54.18
13581;BME280;6861;46.170;7.222;2023-03-21T02:36:16;96211.97;;;9.30;54.25
13581;BME280;6861;46.170;7.222;2023-03-21T02:38:55;96218.19;;;9.24;54.13
13581;BME280;6861;46.170;7.222;2023-03-21T02:41:32;96220.78;;;9.19;53.99
13581;BME280;6861;46.170;7.222;2023-03-21T02:44:09;96216.84;;;9.16;53.62
13581;BME280;6861;46.170;7.222;2023-03-21T02:46:43;96213.69;;;9.14;54.72
13581;BME280;6861;46.170;7.222;2023-03-21T02:49:28;96216.53;;;9.13;54.50
13581;BME280;6861;46.170;7.222;2023-03-21T02:51:58;96208.97;;;9.11;54.80
13581;BME280;6861;46.170;7.222;2023-03-21T02:54:42;96211.03;;;9.09;53.89
13581;BME280;6861;46.170;7.222;2023-03-21T02:57:16;96221.47;;;9.09;54.36
13581;BME280;6861;46.170;7.222;2023-03-21T02:59:46;96226.69;;;9.09;54.77
13581;BME280;6861;46.170;7.222;2023-03-21T03:02:26;96222.50;;;9.08;54.09
13581;BME280;6861;46.170;7.222;2023-03-21T03:04:55;96217.53;;;9.07;54.03
13581;BME280;6861;46.170;7.222;2023-03-21T03:07:30;96219.59;;;9.05;54.18
13581;BME280;6861;46.170;7.222;2023-03-21T03:10:16;96226.59;;;8.99;54.98
13581;BME280;6861;46.170;7.222;2023-03-21T03:12:55;96222.38;;;8.93;54.56
13581;BME280;6861;46.170;7.222;2023-03-21T03:15:32;96217.16;;;8.93;54.26
13581;BME280;6861;46.170;7.222;2023-03-21T03:18:10;96211.94;;;8.93;55.01
13581;BME280;6861;46.170;7.222;2023-03-21T03:20:46;96213.50;;;8.94;54.91
13581;BME280;6861;46.170;7.222;2023-03-21T03:23:23;96215.38;;;8.99;54.14
13581;BME280;6861;46.170;7.222;2023-03-21T03:25:59;96204.94;;;8.99;54.05
13581;BME280;6861;46.170;7.222;2023-03-21T03:28:32;96215.38;;;8.99;53.97
13581;BME280;6861;46.170;7.222;2023-03-21T03:31:01;96213.00;;;8.97;53.99
13581;BME280;6861;46.170;7.222;2023-03-21T03:33:37;96223.41;;;8.92;54.68
13581;BME280;6861;46.170;7.222;2023-03-21T03:36:09;96225.47;;;8.90;54.45
13581;BME280;6861;46.170;7.222;2023-03-21T03:38:56;96221.72;;;8.81;54.88
13581;BME280;6861;46.170;7.222;2023-03-21T03:41:27;96224.84;;;8.78;54.55
13581;BME280;6861;46.170;7.222;2023-03-21T03:44:10;96235.28;;;8.78;54.97
13581;BME280;6861;46.170;7.222;2023-03-21T03:46:42;96227.44;;;8.78;54.48
13581;BME280;6861;46.170;7.222;2023-03-21T03:49:14;96227.16;;;8.74;55.40
13581;BME280;6861;46.170;7.222;2023-03-21T03:51:49;96233.69;;;8.77;55.18
13581;BME280;6861;46.170;7.222;2023-03-21T03:54:21;96235.81;;;8.80;54.57
13581;BME280;6861;46.170;7.222;2023-03-21T03:56:53;96229.56;;;8.81;54.13
13581;BME280;6861;46.170;7.222;2023-03-21T03:59:22;96235.06;;;8.84;54.83
13581;BME280;6861;46.170;7.222;2023-03-21T04:01:50;96231.91;;;8.82;54.04
13581;BME280;6861;46.170;7.222;2023-03-21T04:04:18;96231.13;;;8.82;54.22
13581;BME280;6861;46.170;7.222;2023-03-21T04:06:48;96223.75;;;8.74;54.74
13581;BME280;6861;46.170;7.222;2023-03-21T04:09:19;96233.59;;;8.67;54.67
13581;BME280;6861;46.170;7.222;2023-03-21T04:12:01;96228.59;;;8.60;55.08
13581;BME280;6861;46.170;7.222;2023-03-21T04:14:29;96226.72;;;8.56;54.92
13581;BME280;6861;46.170;7.222;2023-03-21T04:17:11;96232.13;;;8.49;55.09
13581;BME280;6861;46.170;7.222;2023-03-21T04:19:39;96231.03;;;8.45;54.66
13581;BME280;6861;46.170;7.222;2023-03-21T04:22:07;96227.59;;;8.39;55.83
13581;BME280;6861;46.170;7.222;2023-03-21T04:24:35;96229.09;;;8.35;55.94
13581;BME280;6861;46.170;7.222;2023-03-21T04:27:04;96231.38;;;8.32;55.41
13581;BME280;6861;46.170;7.222;2023-03-21T04:29:32;96232.66;;;8.29;55.88
13581;BME280;6861;46.170;7.222;2023-03-21T04:32:01;96228.94;;;8.25;56.27
13581;BME280;6861;46.170;7.222;2023-03-21T04:34:29;96229.69;;;8.20;56.22
13581;BME280;6861;46.170;7.222;2023-03-21T04:36:57;96234.28;;;8.13;56.01
13581;BME280;6861;46.170;7.222;2023-03-21T04:39:25;96234.75;;;8.10;56.18
13581;BME280;6861;46.170;7.222;2023-03-21T04:41:53;96232.09;;;8.05;55.69
13581;BME280;6861;46.170;7.222;2023-03-21T04:44:24;96237.78;;;8.02;55.90
13581;BME280;6861;46.170;7.222;2023-03-21T04:46:52;96225.19;;;7.94;56.04
13581;BME280;6861;46.170;7.222;2023-03-21T04:49:20;96224.38;;;7.94;55.96
13581;BME280;6861;46.170;7.222;2023-03-21T04:51:48;96234.75;;;7.88;56.94
13581;BME280;6861;46.170;7.222;2023-03-21T04:54:16;96218.00;;;7.84;56.27
13581;BME280;6861;46.170;7.222;2023-03-21T04:56:44;96231.03;;;7.84;56.56
13581;BME280;6861;46.170;7.222;2023-03-21T04:59:14;96228.66;;;7.83;56.29
13581;BME280;6861;46.170;7.222;2023-03-21T05:01:44;96229.94;;;7.80;57.19
13581;BME280;6861;46.170;7.222;2023-03-21T05:04:13;96229.94;;;7.80;56.41
13581;BME280;6861;46.170;7.222;2023-03-21T05:06:42;96225.47;;;7.76;56.39
13581;BME280;6861;46.170;7.222;2023-03-21T05:09:11;96233.28;;;7.76;56.94
13581;BME280;6861;46.170;7.222;2023-03-21T05:11:40;96232.50;;;7.75;57.38
13581;BME280;6861;46.170;7.222;2023-03-21T05:14:10;96229.94;;;7.80;56.82
13581;BME280;6861;46.170;7.222;2023-03-21T05:16:40;96230.25;;;7.84;56.82
13581;BME280;6861;46.170;7.222;2023-03-21T05:19:12;96228.75;;;7.88;56.56
13581;BME280;6861;46.170;7.222;2023-03-21T05:21:40;96231.66;;;7.92;57.24
13581;BME280;6861;46.170;7.222;2023-03-21T05:24:12;96220.28;;;7.98;56.48
13581;BME280;6861;46.170;7.222;2023-03-21T05:26:42;96224.53;;;8.04;57.06
13581;BME280;6861;46.170;7.222;2023-03-21T05:29:17;96217.56;;;8.09;56.00
13581;BME280;6861;46.170;7.222;2023-03-21T05:31:45;96228.53;;;8.11;55.72
13581;BME280;6861;46.170;7.222;2023-03-21T05:34:15;96226.72;;;8.12;56.76
13581;BME280;6861;46.170;7.222;2023-03-21T05:36:43;96220.41;;;8.08;56.27
13581;BME280;6861;46.170;7.222;2023-03-21T05:39:11;96223.00;;;8.08;56.44
13581;BME280;6861;46.170;7.222;2023-03-21T05:41:39;96230.81;;;8.08;57.14
13581;BME280;6861;46.170;7.222;2023-03-21T05:44:07;96238.66;;;8.08;56.82
13581;BME280;6861;46.170;7.222;2023-03-21T05:46:35;96232.88;;;8.06;57.07
13581;BME280;6861;46.170;7.222;2023-03-21T05:49:04;96231.31;;;8.05;56.67
13581;BME280;6861;46.170;7.222;2023-03-21T05:51:33;96233.91;;;8.05;55.89
13581;BME280;6861;46.170;7.222;2023-03-21T05:54:01;96238.09;;;8.06;56.49
13581;BME280;6861;46.170;7.222;2023-03-21T05:56:29;96237.06;;;8.07;55.98
13581;BME280;6861;46.170;7.222;2023-03-21T05:58:57;96240.47;;;8.07;56.89
13581;BME280;6861;46.170;7.222;2023-03-21T06:01:25;96236.09;;;8.13;57.16
13581;BME280;6861;46.170;7.222;2023-03-21T06:03:53;96239.75;;;8.12;56.33
13581;BME280;6861;46.170;7.222;2023-03-21T06:06:21;96236.66;;;8.15;55.78
13581;BME280;6861;46.170;7.222;2023-03-21T06:08:51;96239.81;;;8.17;57.08
13581;BME280;6861;46.170;7.222;2023-03-21T06:11:22;96239.31;;;8.20;56.73
13581;BME280;6861;46.170;7.222;2023-03-21T06:13:51;96246.66;;;8.23;56.43
13581;BME280;6861;46.170;7.222;2023-03-21T06:16:19;96246.41;;;8.25;56.79
13581;BME280;6861;46.170;7.222;2023-03-21T06:18:47;96255.03;;;8.25;56.89
13581;BME280;6861;46.170;7.222;2023-03-21T06:21:15;96247.75;;;8.27;57.02
13581;BME280;6861;46.170;7.222;2023-03-21T06:23:43;96240.56;;;8.34;56.20
13581;BME280;6861;46.170;7.222;2023-03-21T06:26:12;96253.13;;;8.37;56.33
13581;BME280;6861;46.170;7.222;2023-03-21T06:28:40;96250.03;;;8.40;56.56
13581;BME280;6861;46.170;7.222;2023-03-21T06:31:08;96249.06;;;8.46;55.55
13581;BME280;6861;46.170;7.222;2023-03-21T06:33:36;96248.06;;;8.52;56.45
13581;BME280;6861;46.170;7.222;2023-03-21T06:36:05;96244.00;;;8.62;55.78
13581;BME280;6861;46.170;7.222;2023-03-21T06:38:34;96249.28;;;8.72;55.79
13581;BME280;6861;46.170;7.222;2023-03-21T06:41:03;96251.41;;;8.75;55.16
13581;BME280;6861;46.170;7.222;2023-03-21T06:43:35;96254.56;;;8.77;55.64
13581;BME280;6861;46.170;7.222;2023-03-21T06:46:03;96254.63;;;8.82;55.51
13581;BME280;6861;46.170;7.222;2023-03-21T06:48:32;96253.88;;;8.86;55.35
13581;BME280;6861;46.170;7.222;2023-03-21T06:51:00;96246.94;;;8.97;55.30
13581;BME280;6861;46.170;7.222;2023-03-21T06:53:28;96258.81;;;9.10;55.09
13581;BME280;6861;46.170;7.222;2023-03-21T06:55:56;96250.53;;;9.18;54.63
13581;BME280;6861;46.170;7.222;2023-03-21T06:58:24;96248.28;;;9.32;53.99
13581;BME280;6861;46.170;7.222;2023-03-21T07:00:54;96251.53;;;9.44;54.05
13581;BME280;6861;46.170;7.222;2023-03-21T07:03:24;96254.97;;;9.54;53.46
13581;BME280;6861;46.170;7.222;2023-03-21T07:05:53;96258.47;;;9.70;53.16
13581;BME280;6861;46.170;7.222;2023-03-21T07:08:21;96262.25;;;9.90;53.54
13581;BME280;6861;46.170;7.222;2023-03-21T07:10:49;96263.41;;;10.09;52.81
13581;BME280;6861;46.170;7.222;2023-03-21T07:13:22;96262.78;;;10.34;52.45
13581;BME280;6861;46.170;7.222;2023-03-21T07:15:51;96257.34;;;10.50;51.93
13581;BME280;6861;46.170;7.222;2023-03-21T07:18:21;96259.50;;;10.69;51.62
13581;BME280;6861;46.170;7.222;2023-03-21T07:20:50;96264.53;;;10.96;51.49
13581;BME280;6861;46.170;7.222;2023-03-21T07:23:19;96264.03;;;11.19;50.88
13581;BME280;6861;46.170;7.222;2023-03-21T07:25:48;96259.81;;;11.28;50.94
13581;BME280;6861;46.170;7.222;2023-03-21T07:28:16;96261.16;;;11.36;50.86
13581;BME280;6861;46.170;7.222;2023-03-21T07:30:50;96262.47;;;11.48;50.17
13581;BME280;6861;46.170;7.222;2023-03-21T07:33:18;96261.66;;;11.53;50.68
13581;BME280;6861;46.170;7.222;2023-03-21T07:35:48;96260.09;;;11.57;50.01
13581;BME280;6861;46.170;7.222;2023-03-21T07:38:16;96264.00;;;11.75;49.60
13581;BME280;6861;46.170;7.222;2023-03-21T07:40:44;96257.47;;;11.98;49.32
13581;BME280;6861;46.170;7.222;2023-03-21T07:43:13;96261.00;;;12.32;48.56
13581;BME280;6861;46.170;7.222;2023-03-21T07:45:41;96260.13;;;13.01;48.18
13581;BME280;6861;46.170;7.222;2023-03-21T07:48:10;96267.06;;;13.89;47.08
13581;BME280;6861;46.170;7.222;2023-03-21T07:50:39;96264.88;;;14.73;45.24
13581;BME280;6861;46.170;7.222;2023-03-21T07:53:09;96262.69;;;15.50;44.27
13581;BME280;6861;46.170;7.222;2023-03-21T07:55:37;96268.13;;;16.46;42.67
13581;BME280;6861;46.170;7.222;2023-03-21T07:58:05;96264.78;;;17.40;41.35
13581;BME280;6861;46.170;7.222;2023-03-21T08:00:33;96267.28;;;18.21;39.97
13581;BME280;6861;46.170;7.222;2023-03-21T08:03:01;96257.03;;;18.85;39.38
13581;BME280;6861;46.170;7.222;2023-03-21T08:05:33;96255.19;;;19.54;37.99
13581;BME280;6861;46.170;7.222;2023-03-21T08:08:03;96254.00;;;20.37;36.67
13581;BME280;6861;46.170;7.222;2023-03-21T08:10:33;96253.00;;;21.21;35.50
13581;BME280;6861;46.170;7.222;2023-03-21T08:13:01;96257.59;;;22.44;33.91
13581;BME280;6861;46.170;7.222;2023-03-21T08:15:29;96242.34;;;23.49;32.73
13581;BME280;6861;46.170;7.222;2023-03-21T08:17:58;96239.81;;;24.28;31.25
13581;BME280;6861;46.170;7.222;2023-03-21T08:20:26;96239.69;;;24.71;30.60
13581;BME280;6861;46.170;7.222;2023-03-21T08:22:54;96244.41;;;25.52;29.52
13581;BME280;6861;46.170;7.222;2023-03-21T08:25:22;96244.56;;;26.24;28.42
13581;BME280;6861;46.170;7.222;2023-03-21T08:27:51;96234.53;;;27.26;26.98
13581;BME280;6861;46.170;7.222;2023-03-21T08:30:26;96238.78;;;28.42;26.21
13581;BME280;6861;46.170;7.222;2023-03-21T08:32:56;96236.56;;;29.20;25.16
13581;BME280;6861;46.170;7.222;2023-03-21T08:35:27;96234.09;;;29.84;24.23
13581;BME280;6861;46.170;7.222;2023-03-21T08:37:56;96228.72;;;29.91;24.13
13581;BME280;6861;46.170;7.222;2023-03-21T08:40:24;96227.94;;;30.76;23.43
13581;BME280;6861;46.170;7.222;2023-03-21T08:42:53;96219.72;;;31.96;21.69
13581;BME280;6861;46.170;7.222;2023-03-21T08:45:22;96210.16;;;32.77;20.92
13581;BME280;6861;46.170;7.222;2023-03-21T08:47:51;96214.22;;;33.30;19.47
13581;BME280;6861;46.170;7.222;2023-03-21T08:50:21;96209.06;;;33.39;19.57
13581;BME280;6861;46.170;7.222;2023-03-21T08:52:50;96212.78;;;33.52;19.23
13581;BME280;6861;46.170;7.222;2023-03-21T08:55:19;96209.91;;;33.90;18.41
13581;BME280;6861;46.170;7.222;2023-03-21T08:57:47;96201.16;;;34.05;17.98
13581;BME280;6861;46.170;7.222;2023-03-21T09:00:17;96190.78;;;34.67;17.34
13581;BME280;6861;46.170;7.222;2023-03-21T09:02:47;96191.00;;;35.39;17.15
13581;BME280;6861;46.170;7.222;2023-03-21T09:05:17;96191.09;;;36.36;16.64
13581;BME280;6861;46.170;7.222;2023-03-21T09:07:46;96176.34;;;37.21;16.10
13581;BME280;6861;46.170;7.222;2023-03-21T09:10:16;96179.03;;;38.00;15.30
13581;BME280;6861;46.170;7.222;2023-03-21T09:12:48;96177.38;;;38.63;14.72
13581;BME280;6861;46.170;7.222;2023-03-21T09:15:19;96176.75;;;39.03;14.52
13581;BME280;6861;46.170;7.222;2023-03-21T09:17:47;96171.31;;;39.64;14.27
13581;BME280;6861;46.170;7.222;2023-03-21T09:20:19;96173.03;;;40.39;13.74
13581;BME280;6861;46.170;7.222;2023-03-21T09:22:52;96168.13;;;41.16;13.18
13581;BME280;6861;46.170;7.222;2023-03-21T09:25:20;96151.63;;;41.34;12.35
13581;BME280;6861;46.170;7.222;2023-03-21T09:27:49;96153.16;;;41.26;12.44
13581;BME280;6861;46.170;7.222;2023-03-21T09:30:19;96150.34;;;41.44;12.20
13581;BME280;6861;46.170;7.222;2023-03-21T09:32:51;96152.13;;;41.56;12.28
13581;BME280;6861;46.170;7.222;2023-03-21T09:35:21;96147.94;;;41.37;12.01
13581;BME280;6861;46.170;7.222;2023-03-21T09:37:50;96145.16;;;41.46;11.80
13581;BME280;6861;46.170;7.222;2023-03-21T09:40:22;96137.50;;;41.50;11.29
13581;BME280;6861;46.170;7.222;2023-03-21T09:42:57;96130.88;;;41.24;11.38
13581;BME280;6861;46.170;7.222;2023-03-21T09:45:36;96114.44;;;41.06;11.21
13581;BME280;6861;46.170;7.222;2023-03-21T09:48:14;96110.56;;;40.34;11.44
13581;BME280;6861;46.170;7.222;2023-03-21T09:50:48;96113.31;;;40.52;11.58
13581;BME280;6861;46.170;7.222;2023-03-21T09:53:21;96104.94;;;40.37;11.32
13581;BME280;6861;46.170;7.222;2023-03-21T09:55:50;96101.38;;;40.73;11.38
13581;BME280;6861;46.170;7.222;2023-03-21T09:58:24;96099.59;;;40.61;11.22
13581;BME280;6861;46.170;7.222;2023-03-21T10:01:00;96092.38;;;40.82;11.06
13581;BME280;6861;46.170;7.222;2023-03-21T10:03:32;96084.44;;;40.93;10.88
13581;BME280;6861;46.170;7.222;2023-03-21T10:06:04;96085.25;;;40.57;11.02
13581;BME280;6861;46.170;7.222;2023-03-21T10:08:39;96081.53;;;39.78;11.21
13581;BME280;6861;46.170;7.222;2023-03-21T10:11:12;96076.50;;;39.27;11.40
13581;BME280;6861;46.170;7.222;2023-03-21T10:13:45;96071.97;;;39.42;11.38
13581;BME280;6861;46.170;7.222;2023-03-21T10:16:20;96072.09;;;39.79;11.21
13581;BME280;6861;46.170;7.222;2023-03-21T10:18:50;96068.59;;;39.78;11.18
13581;BME280;6861;46.170;7.222;2023-03-21T10:21:21;96070.44;;;39.81;10.90
13581;BME280;6861;46.170;7.222;2023-03-21T10:24:11;96064.38;;;39.95;10.97
13581;BME280;6861;46.170;7.222;2023-03-21T10:26:41;96052.97;;;40.43;10.58
13581;BME280;6861;46.170;7.222;2023-03-21T10:29:12;96052.19;;;40.60;10.47
13581;BME280;6861;46.170;7.222;2023-03-21T10:31:44;96046.72;;;40.42;10.63
13581;BME280;6861;46.170;7.222;2023-03-21T10:34:16;96050.75;;;40.74;10.70
13581;BME280;6861;46.170;7.222;2023-03-21T10:36:46;96050.81;;;41.07;10.57
13581;BME280;6861;46.170;7.222;2023-03-21T10:39:20;96042.06;;;41.27;10.24
13581;BME280;6861;46.170;7.222;2023-03-21T10:41:51;96043.25;;;41.35;10.23
13581;BME280;6861;46.170;7.222;2023-03-21T10:44:19;96040.06;;;41.61;10.16
13581;BME280;6861;46.170;7.222;2023-03-21T10:46:51;96037.16;;;42.27;9.65
13581;BME280;6861;46.170;7.222;2023-03-21T10:49:20;96031.03;;;42.91;9.55
13581;BME280;6861;46.170;7.222;2023-03-21T10:51:50;96032.28;;;43.60;9.21
13581;BME280;6861;46.170;7.222;2023-03-21T10:54:20;96021.31;;;44.52;8.60
13581;BME280;6861;46.170;7.222;2023-03-21T10:56:55;96010.63;;;45.28;8.19
13581;BME280;6861;46.170;7.222;2023-03-21T10:59:25;96005.00;;;46.30;7.86
13581;BME280;6861;46.170;7.222;2023-03-21T11:01:57;95989.97;;;46.71;7.68
13581;BME280;6861;46.170;7.222;2023-03-21T11:04:26;96000.75;;;46.85;7.51
13581;BME280;6861;46.170;7.222;2023-03-21T11:06:57;95993.00;;;46.73;7.85
13581;BME280;6861;46.170;7.222;2023-03-21T11:09:43;95993.94;;;47.14;7.68
13581;BME280;6861;46.170;7.222;2023-03-21T11:12:13;95984.16;;;46.68;7.88
13581;BME280;6861;46.170;7.222;2023-03-21T11:14:43;95991.97;;;45.66;8.24
13581;BME280;6861;46.170;7.222;2023-03-21T11:17:34;95983.25;;;44.36;8.47
13581;BME280;6861;46.170;7.222;2023-03-21T11:20:05;95970.13;;;43.03;9.35
13581;BME280;6861;46.170;7.222;2023-03-21T11:22:38;95977.69;;;41.90;9.72
13581;BME280;6861;46.170;7.222;2023-03-21T11:25:08;95973.34;;;40.70;10.42
13581;BME280;6861;46.170;7.222;2023-03-21T11:27:47;95985.00;;;38.00;11.44
13581;BME280;6861;46.170;7.222;2023-03-21T11:30:20;95977.53;;;34.88;13.09
13581;BME280;6861;46.170;7.222;2023-03-21T11:32:53;95974.97;;;32.88;14.42
13581;BME280;6861;46.170;7.222;2023-03-21T11:35:24;95971.19;;;31.39;15.28
13581;BME280;6861;46.170;7.222;2023-03-21T11:37:55;95957.94;;;30.37;15.96
13581;BME280;6861;46.170;7.222;2023-03-21T11:40:25;95951.97;;;29.69;16.58
13581;BME280;6861;46.170;7.222;2023-03-21T11:42:54;95956.63;;;28.94;16.72
13581;BME280;6861;46.170;7.222;2023-03-21T11:45:24;95968.03;;;28.34;17.49
13581;BME280;6861;46.170;7.222;2023-03-21T11:47:56;95950.88;;;27.87;18.30
13581;BME280;6861;46.170;7.222;2023-03-21T11:50:28;95936.38;;;27.40;18.28
13581;BME280;6861;46.170;7.222;2023-03-21T11:53:19;95941.72;;;26.93;19.11
13581;BME280;6861;46.170;7.222;2023-03-21T11:56:01;95937.03;;;26.42;19.37
13581;BME280;6861;46.170;7.222;2023-03-21T11:58:38;95922.41;;;26.06;19.41
13581;BME280;6861;46.170;7.222;2023-03-21T12:01:15;95920.09;;;25.71;19.93
13581;BME280;6861;46.170;7.222;2023-03-21T12:04:02;95911.31;;;25.21;20.40
13581;BME280;6861;46.170;7.222;2023-03-21T12:06:34;95916.94;;;24.90;20.73
13581;BME280;6861;46.170;7.222;2023-03-21T12:12:21;95913.97;;;24.10;22.05
13581;BME280;6861;46.170;7.222;2023-03-21T12:15:09;95904.66;;;23.66;22.60
13581;BME280;6861;46.170;7.222;2023-03-21T12:17:49;95894.63;;;23.43;22.68
13581;BME280;6861;46.170;7.222;2023-03-21T12:20:39;95890.25;;;23.35;23.12
13581;BME280;6861;46.170;7.222;2023-03-21T12:23:27;95894.75;;;23.31;23.41
13581;BME280;6861;46.170;7.222;2023-03-21T12:26:07;95887.78;;;23.27;23.41
13581;BME280;6861;46.170;7.222;2023-03-21T12:28:46;95890.09;;;23.28;23.03
13581;BME280;6861;46.170;7.222;2023-03-21T12:31:24;95879.81;;;23.11;23.31
13581;BME280;6861;46.170;7.222;2023-03-21T12:34:09;95869.50;;;22.94;23.71
13581;BME280;6861;46.170;7.222;2023-03-21T12:36:55;95858.00;;;22.62;24.69
13581;BME280;6861;46.170;7.222;2023-03-21T12:39:31;95861.03;;;22.44;24.77
13581;BME280;6861;46.170;7.222;2023-03-21T12:42:27;95863.00;;;22.32;24.97
13581;BME280;6861;46.170;7.222;2023-03-21T12:45:02;95854.31;;;22.35;25.09
13581;BME280;6861;46.170;7.222;2023-03-21T12:47:43;95855.06;;;22.19;25.74
13581;BME280;6861;46.170;7.222;2023-03-21T12:50:17;95857.38;;;22.05;25.75
13581;BME280;6861;46.170;7.222;2023-03-21T12:52:51;95853.59;;;22.06;25.96
13581;BME280;6861;46.170;7.222;2023-03-21T12:55:23;95851.53;;;22.15;25.94
13581;BME280;6861;46.170;7.222;2023-03-21T12:57:56;95845.53;;;22.18;25.70
13581;BME280;6861;46.170;7.222;2023-03-21T13:00:27;95840.38;;;22.26;25.58
13581;BME280;6861;46.170;7.222;2023-03-21T13:03:03;95842.13;;;22.34;25.37
13581;BME280;6861;46.170;7.222;2023-03-21T13:05:34;95838.50;;;22.42;25.77
13581;BME280;6861;46.170;7.222;2023-03-21T13:08:12;95838.69;;;22.49;26.26
13581;BME280;6861;46.170;7.222;2023-03-21T13:10:43;95828.88;;;22.53;26.45
13581;BME280;6861;46.170;7.222;2023-03-21T13:13:18;95823.84;;;22.67;26.51
13581;BME280;6861;46.170;7.222;2023-03-21T13:16:02;95816.44;;;22.76;27.14
13581;BME280;6861;46.170;7.222;2023-03-21T13:18:50;95811.13;;;22.76;27.46
13581;BME280;6861;46.170;7.222;2023-03-21T13:21:28;95805.13;;;22.79;27.53
13581;BME280;6861;46.170;7.222;2023-03-21T13:24:02;95798.19;;;22.78;27.57
13581;BME280;6861;46.170;7.222;2023-03-21T13:26:37;95803.38;;;22.71;27.62
13581;BME280;6861;46.170;7.222;2023-03-21T13:29:22;95800.72;;;22.55;27.86
13581;BME280;6861;46.170;7.222;2023-03-21T13:31:52;95802.22;;;22.53;28.47
13581;BME280;6861;46.170;7.222;2023-03-21T13:34:23;95797.56;;;22.50;28.36
13581;BME280;6861;46.170;7.222;2023-03-21T13:36:55;95798.81;;;22.56;28.02
13581;BME280;6861;46.170;7.222;2023-03-21T13:39:26;95791.41;;;22.65;28.74
13581;BME280;6861;46.170;7.222;2023-03-21T13:42:02;95791.25;;;22.58;28.02
13581;BME280;6861;46.170;7.222;2023-03-21T13:44:38;95777.00;;;22.50;28.41
13581;BME280;6861;46.170;7.222;2023-03-21T13:47:26;95781.06;;;22.44;27.94
13581;BME280;6861;46.170;7.222;2023-03-21T13:50:20;95772.97;;;22.41;28.30
13581;BME280;6861;46.170;7.222;2023-03-21T13:53:15;95780.44;;;22.51;28.41